Time;durP1;ratioP1;P1;durP2;ratioP2;P2;SDS_P1;SDS_P2;PMS_P1;PMS_P2;Temp;Humidity;BMP_temperature;BMP_pressure;BME280_temperature;BME280_humidity;BME280_pressure;Samples;Min_cycle;Max_cycle;Signal;HPM_P1;HPM_P2
2022/12/21 00:01:36;;;;;;;37.28;12.13;;;;;;;;;;5016993;28;20125;-71
2022/12/21 00:04:03;;;;;;;35.97;10.18;;;;;;;;;;5050847;28;20443;-73
2022/12/21 00:06:30;;;;;;;34.70;11.35;;;;;;;;;;5050473;28;20067;-72
2022/12/21 00:08:56;;;;;;;33.42;11.52;;;;;;;;;;5050917;28;20029;-72
2022/12/21 00:11:23;;;;;;;42.20;10.05;;;;;;;;;;5032021;28;20082;-73
2022/12/21 00:13:48;;;;;;;34.22;10.63;;;;;;;;;;5050083;28;20041;-72
2022/12/21 00:16:15;;;;;;;29.38;10.02;;;;;;;;;;5048575;28;20557;-73
2022/12/21 00:18:41;;;;;;;33.45;9.95;;;;;;;;;;5048673;28;20504;-73
2022/12/21 00:21:17;;;;;;;30.58;10.02;;;;;;;;;;5050238;28;20132;-73
2022/12/21 00:23:44;;;;;;;42.33;10.77;;;;;;;;;;5050513;28;20029;-73
2022/12/21 00:26:10;;;;;;;36.03;10.32;;;;;;;;;;5049369;28;20037;-71
2022/12/21 00:28:36;;;;;;;30.38;9.50;;;;;;;;;;5048678;28;20107;-73
2022/12/21 00:31:08;;;;;;;33.95;8.82;;;;;;;;;;5049338;28;20140;-72
2022/12/21 00:33:40;;;;;;;40.15;8.73;;;;;;;;;;5050065;28;20033;-72
2022/12/21 00:36:06;;;;;;;38.83;9.23;;;;;;;;;;5050089;28;20127;-72
2022/12/21 00:38:32;;;;;;;26.95;8.57;;;;;;;;;;5049698;28;20491;-72
2022/12/21 00:41:02;;;;;;;33.55;9.88;;;;;;;;;;5048508;28;20592;-71
2022/12/21 00:43:27;;;;;;;26.27;8.63;;;;;;;;;;5050166;28;20528;-73
2022/12/21 00:45:53;;;;;;;34.97;10.10;;;;;;;;;;5046681;28;20037;-73
2022/12/21 00:48:19;;;;;;;41.15;9.63;;;;;;;;;;5028962;28;20055;-71
2022/12/21 00:50:47;;;;;;;33.97;10.20;;;;;;;;;;5029534;28;20384;-71
2022/12/21 00:53:13;;;;;;;27.73;8.85;;;;;;;;;;5028089;28;20040;-72
2022/12/21 00:55:38;;;;;;;30.58;8.75;;;;;;;;;;5028923;28;20029;-72
2022/12/21 00:58:04;;;;;;;34.20;7.55;;;;;;;;;;5028895;28;20029;-71
2022/12/21 01:00:29;;;;;;;37.25;7.78;;;;;;;;;;5013017;28;20039;-73
2022/12/21 01:02:57;;;;;;;28.23;6.90;;;;;;;;;;4949277;28;20421;-71
2022/12/21 01:05:22;;;;;;;36.60;6.82;;;;;;;;;;4946753;28;20527;-71
2022/12/21 01:07:48;;;;;;;22.90;6.07;;;;;;;;;;4951072;28;20034;-73
2022/12/21 01:10:16;;;;;;;32.92;6.50;;;;;;;;;;4949505;28;20625;-71
2022/12/21 01:12:41;;;;;;;30.70;6.18;;;;;;;;;;4946248;28;20650;-70
2022/12/21 01:15:07;;;;;;;22.45;5.85;;;;;;;;;;4950141;28;20133;-72
2022/12/21 01:17:35;;;;;;;33.22;8.27;;;;;;;;;;4950016;28;20034;-72
2022/12/21 01:20:06;;;;;;;37.38;8.13;;;;;;;;;;4951421;28;20046;-71
2022/12/21 01:22:32;;;;;;;32.80;10.43;;;;;;;;;;4930542;28;20035;-72
2022/12/21 01:24:57;;;;;;;41.53;10.77;;;;;;;;;;4947975;28;20037;-72
2022/12/21 01:27:22;;;;;;;37.08;9.70;;;;;;;;;;4950937;28;20198;-71
2022/12/21 01:29:50;;;;;;;40.95;10.07;;;;;;;;;;4950347;28;20319;-71
2022/12/21 01:32:15;;;;;;;47.22;11.27;;;;;;;;;;4946171;28;20035;-71
2022/12/21 01:34:40;;;;;;;29.25;9.45;;;;;;;;;;4949559;28;20054;-70
2022/12/21 01:37:06;;;;;;;30.95;10.00;;;;;;;;;;4949714;28;20041;-71
2022/12/21 01:39:34;;;;;;;26.08;11.43;;;;;;;;;;4946471;28;20532;-70
2022/12/21 01:42:01;;;;;;;41.97;11.60;;;;;;;;;;4949321;28;20077;-71
2022/12/21 01:44:45;;;;;;;47.35;11.80;;;;;;;;;;4950861;28;20191;-70
2022/12/21 01:47:14;;;;;;;40.13;12.18;;;;;;;;;;4958445;28;20438;-71
2022/12/21 01:49:40;;;;;;;41.75;11.30;;;;;;;;;;4962084;28;20027;-72
2022/12/21 01:52:07;;;;;;;40.20;11.85;;;;;;;;;;4948341;28;20478;-70
2022/12/21 01:55:01;;;;;;;42.15;12.02;;;;;;;;;;4963224;28;20054;-71
2022/12/21 01:57:29;;;;;;;35.20;12.88;;;;;;;;;;4947257;28;20034;-71
2022/12/21 01:59:56;;;;;;;36.65;12.43;;;;;;;;;;4967395;28;20042;-71
2022/12/21 02:02:24;;;;;;;36.03;11.40;;;;;;;;;;4933074;28;20089;-71
2022/12/21 02:04:52;;;;;;;28.00;10.73;;;;;;;;;;4947801;28;20042;-71
2022/12/21 02:07:23;;;;;;;26.35;9.77;;;;;;;;;;4946755;28;20046;-71
2022/12/21 02:09:50;;;;;;;45.08;10.93;;;;;;;;;;4946121;28;20596;-71
2022/12/21 02:12:18;;;;;;;35.45;10.23;;;;;;;;;;4930179;28;20077;-70
2022/12/21 02:14:46;;;;;;;31.05;9.13;;;;;;;;;;4943958;28;20077;-71
2022/12/21 02:17:26;;;;;;;32.55;9.63;;;;;;;;;;4946039;28;20039;-72
2022/12/21 02:20:07;;;;;;;41.90;10.60;;;;;;;;;;4945407;28;20084;-72
2022/12/21 02:22:38;;;;;;;41.83;9.90;;;;;;;;;;4945318;28;20031;-71
2022/12/21 02:25:24;;;;;;;29.98;9.65;;;;;;;;;;4950006;28;20420;-71
2022/12/21 02:27:52;;;;;;;28.92;8.88;;;;;;;;;;4949907;28;20123;-71
2022/12/21 02:30:21;;;;;;;33.38;8.05;;;;;;;;;;4947614;28;20043;-70
2022/12/21 02:32:53;;;;;;;38.40;8.00;;;;;;;;;;4949807;28;20027;-71
2022/12/21 02:35:38;;;;;;;44.55;11.13;;;;;;;;;;4950064;28;20130;-70
2022/12/21 02:38:22;;;;;;;38.22;12.75;;;;;;;;;;4948807;28;20251;-71
2022/12/21 02:41:06;;;;;;;46.95;16.15;;;;;;;;;;4950720;28;20035;-70
2022/12/21 02:44:13;;;;;;;48.53;16.45;;;;;;;;;;4949954;28;20034;-71
2022/12/21 02:46:43;;;;;;;43.47;13.63;;;;;;;;;;4948091;28;20062;-70
2022/12/21 02:49:15;;;;;;;45.63;13.05;;;;;;;;;;4948187;28;20034;-71
2022/12/21 02:51:47;;;;;;;48.25;14.95;;;;;;;;;;4947378;28;20439;-71
2022/12/21 02:54:14;;;;;;;63.80;26.15;;;;;;;;;;4947595;28;20039;-70
2022/12/21 02:56:42;;;;;;;78.25;26.77;;;;;;;;;;4948442;28;20030;-70
2022/12/21 02:59:08;;;;;;;56.55;22.70;;;;;;;;;;4948093;28;20034;-70
2022/12/21 03:01:45;;;;;;;61.35;23.92;;;;;;;;;;4941759;28;20066;-71
2022/12/21 03:04:25;;;;;;;53.50;21.88;;;;;;;;;;4965618;28;20307;-70
2022/12/21 03:06:57;;;;;;;66.72;23.52;;;;;;;;;;4966633;28;20061;-70
2022/12/21 03:09:22;;;;;;;;;;;;;;;;;;4949691;28;20117;-70
2022/12/21 03:11:51;;;;;;;62.10;23.15;;;;;;;;;;4967058;28;20456;-71
2022/12/21 03:14:37;;;;;;;62.03;24.48;;;;;;;;;;4967183;28;20040;-70
2022/12/21 03:17:10;;;;;;;81.32;30.90;;;;;;;;;;4967577;28;20349;-70
2022/12/21 03:19:35;;;;;;;77.72;25.67;;;;;;;;;;4966333;28;20039;-72
2022/12/21 03:22:06;;;;;;;46.80;17.73;;;;;;;;;;4965733;28;20033;-70
2022/12/21 03:24:35;;;;;;;57.40;17.23;;;;;;;;;;4966234;28;20552;-71
2022/12/21 03:27:19;;;;;;;52.00;18.80;;;;;;;;;;4967141;28;20061;-70
2022/12/21 03:29:50;;;;;;;77.13;22.88;;;;;;;;;;4966794;28;20498;-70
2022/12/21 03:32:23;;;;;;;81.63;24.42;;;;;;;;;;4965198;28;20035;-70
2022/12/21 03:34:53;;;;;;;65.57;22.37;;;;;;;;;;4947552;28;20061;-71
2022/12/21 03:37:21;;;;;;;79.78;25.15;;;;;;;;;;4953181;28;20212;-70
2022/12/21 03:39:50;;;;;;;64.03;22.70;;;;;;;;;;4946281;28;20030;-71
2022/12/21 03:42:23;;;;;;;51.08;22.27;;;;;;;;;;4929738;28;20816;-70
2022/12/21 03:44:55;;;;;;;50.38;21.98;;;;;;;;;;4945645;28;20035;-70
2022/12/21 03:47:24;;;;;;;51.65;18.08;;;;;;;;;;4960447;28;20061;-70
2022/12/21 03:49:51;;;;;;;46.10;15.70;;;;;;;;;;4963951;28;20121;-70
2022/12/21 03:52:22;;;;;;;55.72;20.10;;;;;;;;;;4965079;28;20144;-70
2022/12/21 03:55:00;;;;;;;53.70;18.42;;;;;;;;;;4965508;28;20046;-70
2022/12/21 03:57:26;;;;;;;59.15;21.13;;;;;;;;;;4949428;28;20231;-70
2022/12/21 03:59:53;;;;;;;64.75;25.17;;;;;;;;;;4955896;28;20548;-70
2022/12/21 04:02:21;;;;;;;60.85;22.10;;;;;;;;;;4947254;28;20828;-71
2022/12/21 04:04:49;;;;;;;63.40;22.15;;;;;;;;;;4965313;28;20049;-70
2022/12/21 04:07:15;;;;;;;67.65;23.63;;;;;;;;;;4964558;28;20479;-69
2022/12/21 04:09:43;;;;;;;64.65;23.15;;;;;;;;;;4965092;28;20195;-69
2022/12/21 04:14:55;;;;;;;62.13;20.60;;;;;;;;;;4964190;28;20524;-70
2022/12/21 04:17:20;;;;;;;73.18;22.40;;;;;;;;;;4964795;28;20096;-69
2022/12/21 04:20:19;;;;;;;58.55;21.33;;;;;;;;;;4946312;28;20472;-70
2022/12/21 04:28:11;;;;;;;65.57;22.40;;;;;;;;;;4964436;28;20034;-70
2022/12/21 04:30:40;;;;;;;57.70;21.20;;;;;;;;;;4964428;28;20036;-70
2022/12/21 04:33:08;;;;;;;63.40;26.02;;;;;;;;;;4963987;28;20030;-70
2022/12/21 04:35:33;;;;;;;57.13;22.88;;;;;;;;;;4956148;28;20046;-69
2022/12/21 04:38:01;;;;;;;51.60;21.83;;;;;;;;;;4944638;28;20469;-70
2022/12/21 04:40:29;;;;;;;60.00;22.25;;;;;;;;;;5011545;28;20034;-69
2022/12/21 04:42:55;;;;;;;65.75;21.33;;;;;;;;;;5010783;28;20040;-71
2022/12/21 04:45:20;;;;;;;57.17;17.35;;;;;;;;;;4944745;28;20298;-70
2022/12/21 04:47:48;;;;;;;48.10;19.65;;;;;;;;;;4961824;28;20276;-71
2022/12/21 04:50:14;;;;;;;46.80;17.08;;;;;;;;;;4946534;28;20038;-69
2022/12/21 04:52:39;;;;;;;46.03;18.30;;;;;;;;;;4964719;28;20057;-70
2022/12/21 04:55:04;;;;;;;49.20;19.08;;;;;;;;;;4946322;28;20544;-70
2022/12/21 04:57:30;;;;;;;46.40;18.85;;;;;;;;;;4963359;28;20045;-70
2022/12/21 04:59:56;;;;;;;45.90;18.65;;;;;;;;;;4946242;28;20058;-69
2022/12/21 05:02:21;;;;;;;47.47;18.70;;;;;;;;;;4940949;28;20846;-70
2022/12/21 05:04:46;;;;;;;46.28;15.73;;;;;;;;;;4960313;28;20531;-70
2022/12/21 05:07:12;;;;;;;41.05;14.70;;;;;;;;;;4964421;28;20115;-71
2022/12/21 05:09:37;;;;;;;54.45;20.08;;;;;;;;;;4963409;28;20264;-70
2022/12/21 05:12:05;;;;;;;53.85;20.52;;;;;;;;;;4962633;28;20045;-70
2022/12/21 05:14:31;;;;;;;52.53;19.88;;;;;;;;;;4964084;28;20042;-70
2022/12/21 05:16:56;;;;;;;56.00;18.13;;;;;;;;;;4963128;28;20155;-69
2022/12/21 05:19:23;;;;;;;43.58;15.75;;;;;;;;;;4947261;28;20039;-70
2022/12/21 05:21:49;;;;;;;33.83;13.90;;;;;;;;;;4963715;28;20034;-70
2022/12/21 05:24:14;;;;;;;45.35;19.45;;;;;;;;;;4963973;28;20069;-69
2022/12/21 05:26:39;;;;;;;59.60;15.52;;;;;;;;;;4962556;28;20493;-69
2022/12/21 05:29:05;;;;;;;60.72;20.48;;;;;;;;;;4964511;28;20042;-70
2022/12/21 05:31:30;;;;;;;67.60;29.67;;;;;;;;;;4946188;28;20404;-70
2022/12/21 05:33:58;;;;;;;52.53;26.48;;;;;;;;;;4963722;28;20042;-70
2022/12/21 05:36:24;;;;;;;66.18;36.33;;;;;;;;;;4947640;28;20111;-69
2022/12/21 05:38:49;;;;;;;55.38;25.80;;;;;;;;;;4946974;28;20034;-71
2022/12/21 05:41:16;;;;;;;46.95;20.75;;;;;;;;;;4963380;28;20496;-69
2022/12/21 05:43:41;;;;;;;51.35;20.27;;;;;;;;;;4963765;28;22239;-70
2022/12/21 05:46:11;;;;;;;46.67;17.98;;;;;;;;;;4961009;28;20042;-69
2022/12/21 05:48:36;;;;;;;44.33;17.98;;;;;;;;;;4962850;28;20540;-69
2022/12/21 05:51:09;;;;;;;56.50;16.58;;;;;;;;;;4946325;28;20122;-69
2022/12/21 05:53:35;;;;;;;68.28;25.95;;;;;;;;;;4937522;28;20354;-70
2022/12/21 05:56:00;;;;;;;61.97;26.83;;;;;;;;;;4964471;28;20042;-70
2022/12/21 05:58:26;;;;;;;56.33;21.48;;;;;;;;;;4967017;28;20059;-72
2022/12/21 06:00:52;;;;;;;62.13;23.25;;;;;;;;;;4967211;28;20054;-70
2022/12/21 06:03:21;;;;;;;46.47;24.20;;;;;;;;;;4966357;28;20330;-70
2022/12/21 06:05:46;;;;;;;47.97;22.83;;;;;;;;;;4967807;28;20639;-70
2022/12/21 06:08:11;;;;;;;52.60;19.23;;;;;;;;;;4949806;28;20034;-70
2022/12/21 06:10:39;;;;;;;65.65;18.05;;;;;;;;;;4967299;28;20336;-69
2022/12/21 06:13:06;;;;;;;59.13;17.58;;;;;;;;;;4967042;28;20117;-69
2022/12/21 06:15:31;;;;;;;35.72;11.98;;;;;;;;;;4966637;28;23003;-70
2022/12/21 06:17:58;;;;;;;48.05;14.68;;;;;;;;;;4966649;28;20038;-69
2022/12/21 06:20:24;;;;;;;54.20;19.88;;;;;;;;;;4968189;28;20072;-70
2022/12/21 06:22:51;;;;;;;84.68;31.80;;;;;;;;;;4970173;28;20031;-69
2022/12/21 06:25:17;;;;;;;55.63;21.67;;;;;;;;;;4968700;28;20037;-69
2022/12/21 06:27:42;;;;;;;48.33;14.38;;;;;;;;;;4967420;28;20292;-69
2022/12/21 06:30:07;;;;;;;58.72;20.90;;;;;;;;;;4967555;28;20521;-68
2022/12/21 06:32:33;;;;;;;47.95;16.90;;;;;;;;;;4969064;28;20096;-69
2022/12/21 06:35:00;;;;;;;58.53;18.25;;;;;;;;;;4968543;28;20034;-69
2022/12/21 06:37:28;;;;;;;54.17;20.77;;;;;;;;;;4968051;28;20042;-70
2022/12/21 06:39:55;;;;;;;60.88;20.88;;;;;;;;;;4950314;28;20123;-69
2022/12/21 06:42:21;;;;;;;49.35;19.15;;;;;;;;;;4967264;28;20112;-69
2022/12/21 06:44:48;;;;;;;51.03;18.65;;;;;;;;;;4968082;28;20125;-70
2022/12/21 06:47:14;;;;;;;66.65;21.98;;;;;;;;;;4968007;28;20419;-70
2022/12/21 06:49:39;;;;;;;63.42;22.05;;;;;;;;;;4968931;28;20080;-70
2022/12/21 06:52:04;;;;;;;66.45;23.08;;;;;;;;;;4969978;28;20037;-70
2022/12/21 06:54:32;;;;;;;59.78;22.05;;;;;;;;;;4969553;28;20038;-69
2022/12/21 06:56:57;;;;;;;62.67;24.67;;;;;;;;;;4969489;28;20096;-71
2022/12/21 06:59:23;;;;;;;62.70;23.65;;;;;;;;;;4969012;28;20043;-71
2022/12/21 07:01:48;;;;;;;49.38;19.48;;;;;;;;;;4967996;28;20428;-69
2022/12/21 07:04:13;;;;;;;66.38;21.88;;;;;;;;;;4968930;28;20046;-69
2022/12/21 07:06:39;;;;;;;59.92;21.25;;;;;;;;;;4950638;28;20038;-70
2022/12/21 07:09:04;;;;;;;47.65;16.73;;;;;;;;;;4934088;28;20747;-70
2022/12/21 07:11:29;;;;;;;42.10;14.77;;;;;;;;;;4950179;28;20035;-69
2022/12/21 07:13:59;;;;;;;38.55;14.38;;;;;;;;;;4968561;28;20472;-70
2022/12/21 07:16:24;;;;;;;44.30;15.13;;;;;;;;;;4953199;28;20319;-70
2022/12/21 07:18:50;;;;;;;42.85;15.35;;;;;;;;;;4951251;28;20518;-70
2022/12/21 07:21:19;;;;;;;48.72;16.20;;;;;;;;;;4969621;28;20034;-69
2022/12/21 07:23:47;;;;;;;46.95;15.27;;;;;;;;;;4969608;28;20042;-70
2022/12/21 07:26:17;;;;;;;48.40;15.90;;;;;;;;;;4969670;28;20393;-69
2022/12/21 07:28:45;;;;;;;43.78;16.40;;;;;;;;;;4969402;28;20027;-70
2022/12/21 07:31:21;;;;;;;45.45;16.48;;;;;;;;;;4968882;28;20073;-69
2022/12/21 07:33:50;;;;;;;53.55;18.67;;;;;;;;;;4951167;28;20609;-70
2022/12/21 07:36:17;;;;;;;54.42;18.92;;;;;;;;;;4968913;28;20035;-69
2022/12/21 07:38:43;;;;;;;54.00;19.80;;;;;;;;;;4968147;28;20499;-70
2022/12/21 07:41:10;;;;;;;47.30;18.55;;;;;;;;;;4967667;28;20031;-69
2022/12/21 07:43:35;;;;;;;58.95;20.25;;;;;;;;;;4968075;28;20030;-70
2022/12/21 07:46:02;;;;;;;40.60;18.30;;;;;;;;;;4950425;28;20033;-69
2022/12/21 07:48:27;;;;;;;59.33;20.17;;;;;;;;;;4967066;28;20506;-70
2022/12/21 07:50:52;;;;;;;51.00;22.77;;;;;;;;;;4968652;28;20441;-69
2022/12/21 07:53:18;;;;;;;58.10;25.73;;;;;;;;;;4967954;28;20028;-69
2022/12/21 07:55:44;;;;;;;46.90;25.25;;;;;;;;;;4967926;28;20026;-70
2022/12/21 07:58:09;;;;;;;57.97;23.25;;;;;;;;;;4933693;28;20080;-69
2022/12/21 08:00:37;;;;;;;51.75;22.50;;;;;;;;;;4950178;28;20103;-69
2022/12/21 08:03:03;;;;;;;59.03;27.20;;;;;;;;;;4967143;28;20349;-70
2022/12/21 08:05:31;;;;;;;60.83;22.13;;;;;;;;;;4966759;28;20575;-70
2022/12/21 08:07:57;;;;;;;52.60;23.23;;;;;;;;;;4967973;28;20113;-70
2022/12/21 08:10:22;;;;;;;60.40;24.67;;;;;;;;;;4966939;28;20030;-69
2022/12/21 08:12:48;;;;;;;59.45;27.02;;;;;;;;;;4969024;28;20374;-70
2022/12/21 08:15:13;;;;;;;58.78;25.83;;;;;;;;;;4967761;28;20042;-69
2022/12/21 08:17:38;;;;;;;62.53;25.75;;;;;;;;;;4968233;28;20180;-69
2022/12/21 08:20:04;;;;;;;59.25;26.80;;;;;;;;;;4968741;28;20240;-69
2022/12/21 08:22:29;;;;;;;73.18;27.38;;;;;;;;;;4966580;28;20038;-70
2022/12/21 08:24:54;;;;;;;56.85;25.88;;;;;;;;;;4967045;28;20054;-69
2022/12/21 08:27:19;;;;;;;66.13;29.17;;;;;;;;;;4967125;28;20092;-69
2022/12/21 08:29:45;;;;;;;79.20;35.47;;;;;;;;;;4950326;28;20459;-70
2022/12/21 08:32:12;;;;;;;76.95;37.25;;;;;;;;;;4920069;28;20630;-70
2022/12/21 08:34:37;;;;;;;87.20;36.25;;;;;;;;;;4969081;28;20149;-70
2022/12/21 08:37:03;;;;;;;90.25;37.63;;;;;;;;;;4951718;28;20031;-70
2022/12/21 08:39:28;;;;;;;101.53;38.78;;;;;;;;;;4951046;28;20050;-70
2022/12/21 08:41:53;;;;;;;102.63;39.25;;;;;;;;;;4967923;28;20087;-69
2022/12/21 08:44:23;;;;;;;112.07;41.47;;;;;;;;;;4950761;28;20117;-71
2022/12/21 08:46:49;;;;;;;169.70;54.55;;;;;;;;;;4958546;28;20039;-69
2022/12/21 08:49:16;;;;;;;168.05;57.30;;;;;;;;;;4948418;28;20039;-70
2022/12/21 08:51:42;;;;;;;155.02;53.45;;;;;;;;;;4949847;28;20035;-70
2022/12/21 08:54:09;;;;;;;117.55;41.20;;;;;;;;;;4949326;28;20058;-71
2022/12/21 08:56:36;;;;;;;113.65;38.97;;;;;;;;;;4951120;28;20401;-70
2022/12/21 08:59:03;;;;;;;90.93;35.03;;;;;;;;;;4949825;28;20062;-70
2022/12/21 09:01:31;;;;;;;84.07;34.42;;;;;;;;;;4958465;28;20050;-71
2022/12/21 09:03:56;;;;;;;98.68;36.60;;;;;;;;;;4967585;28;20068;-71
2022/12/21 09:06:25;;;;;;;87.18;37.45;;;;;;;;;;4968167;28;20042;-70
2022/12/21 09:08:50;;;;;;;82.10;33.15;;;;;;;;;;4934609;28;20030;-70
2022/12/21 09:11:17;;;;;;;75.68;31.23;;;;;;;;;;4967149;28;20452;-71
2022/12/21 09:13:43;;;;;;;79.03;37.53;;;;;;;;;;4950744;28;20039;-70
2022/12/21 09:16:16;;;;;;;90.20;40.30;;;;;;;;;;4968370;28;20033;-70
2022/12/21 09:18:41;;;;;;;87.00;41.08;;;;;;;;;;4965799;28;20034;-69
2022/12/21 09:21:07;;;;;;;84.82;42.05;;;;;;;;;;4966772;28;20326;-70
2022/12/21 09:23:35;;;;;;;95.22;50.13;;;;;;;;;;4967031;28;20033;-71
2022/12/21 09:26:02;;;;;;;89.53;46.05;;;;;;;;;;4965837;28;20035;-71
2022/12/21 09:28:28;;;;;;;82.68;37.28;;;;;;;;;;4966462;28;20023;-72
2022/12/21 09:30:53;;;;;;;77.25;40.25;;;;;;;;;;4967886;28;20566;-69
2022/12/21 09:33:18;;;;;;;79.75;33.53;;;;;;;;;;4971287;28;20038;-70
2022/12/21 09:35:44;;;;;;;63.72;30.38;;;;;;;;;;4937885;28;20499;-71
2022/12/21 09:38:12;;;;;;;77.97;35.83;;;;;;;;;;4954409;28;20030;-69
2022/12/21 09:40:37;;;;;;;74.22;32.33;;;;;;;;;;4937445;28;20094;-71
2022/12/21 09:43:35;;;;;;;71.43;33.92;;;;;;;;;;4937846;28;20022;-71
2022/12/21 09:46:11;;;;;;;61.83;27.60;;;;;;;;;;4975291;28;20039;-71
2022/12/21 09:48:43;;;;;;;53.83;28.23;;;;;;;;;;4970230;28;20065;-72
2022/12/21 09:51:25;;;;;;;62.90;28.48;;;;;;;;;;4972221;28;20092;-70
2022/12/21 09:54:19;;;;;;;68.65;27.17;;;;;;;;;;4971589;28;20115;-70
2022/12/21 09:56:47;;;;;;;57.05;25.33;;;;;;;;;;4971706;28;20099;-71
2022/12/21 09:59:14;;;;;;;60.13;27.17;;;;;;;;;;4971921;28;20039;-69
2022/12/21 10:01:55;;;;;;;52.22;25.13;;;;;;;;;;4971310;28;20043;-71
2022/12/21 10:04:38;;;;;;;62.88;26.33;;;;;;;;;;4972780;28;20043;-70
2022/12/21 10:07:10;;;;;;;53.53;25.38;;;;;;;;;;4972318;28;20034;-70
2022/12/21 10:09:41;;;;;;;54.37;22.43;;;;;;;;;;4973217;28;20034;-70
2022/12/21 10:12:26;;;;;;;48.15;22.00;;;;;;;;;;4971568;28;20026;-70
2022/12/21 10:15:02;;;;;;;57.05;21.73;;;;;;;;;;4970984;28;20099;-69
2022/12/21 10:17:32;;;;;;;46.83;17.73;;;;;;;;;;4954952;28;20109;-70
2022/12/21 10:19:57;;;;;;;38.03;16.65;;;;;;;;;;4973221;28;20544;-70
2022/12/21 10:22:28;;;;;;;33.90;16.13;;;;;;;;;;4976297;28;20038;-70
2022/12/21 10:24:54;;;;;;;40.22;16.92;;;;;;;;;;4975007;28;20062;-71
2022/12/21 10:27:43;;;;;;;49.90;17.40;;;;;;;;;;4973865;28;20480;-71
2022/12/21 10:30:12;;;;;;;47.25;17.42;;;;;;;;;;4973714;28;20036;-70
2022/12/21 10:32:40;;;;;;;46.85;17.65;;;;;;;;;;4974557;28;20139;-70
2022/12/21 10:35:21;;;;;;;52.92;17.58;;;;;;;;;;4974101;28;20121;-70
2022/12/21 10:37:55;;;;;;;48.67;16.92;;;;;;;;;;4974576;28;20191;-69
2022/12/21 10:40:31;;;;;;;47.92;15.80;;;;;;;;;;4956521;28;20402;-70
2022/12/21 10:42:59;;;;;;;40.92;15.13;;;;;;;;;;4970961;28;20127;-70
2022/12/21 10:45:25;;;;;;;42.15;15.35;;;;;;;;;;4973597;28;20159;-70
2022/12/21 10:47:53;;;;;;;40.53;15.07;;;;;;;;;;4953878;28;20554;-70
2022/12/21 10:50:30;;;;;;;48.25;15.20;;;;;;;;;;4952970;28;20289;-72
2022/12/21 10:52:56;;;;;;;43.70;16.35;;;;;;;;;;4951101;28;20492;-71
2022/12/21 10:55:24;;;;;;;46.15;16.67;;;;;;;;;;4956736;28;20064;-72
2022/12/21 10:57:52;;;;;;;55.88;18.85;;;;;;;;;;4957626;28;20037;-72
2022/12/21 11:00:23;;;;;;;42.45;17.58;;;;;;;;;;4955494;28;20050;-71
2022/12/21 11:02:50;;;;;;;46.15;19.10;;;;;;;;;;4955208;28;20443;-71
2022/12/21 11:05:26;;;;;;;59.50;19.42;;;;;;;;;;4954995;28;20035;-71
2022/12/21 11:08:09;;;;;;;46.58;19.35;;;;;;;;;;4954929;28;20401;-71
2022/12/21 11:10:36;;;;;;;46.95;19.25;;;;;;;;;;4956298;28;20080;-70
2022/12/21 11:13:04;;;;;;;59.92;19.30;;;;;;;;;;4935264;28;20042;-70
2022/12/21 11:15:30;;;;;;;50.15;19.50;;;;;;;;;;4953138;28;20096;-70
2022/12/21 11:17:58;;;;;;;43.08;17.75;;;;;;;;;;4936556;28;20038;-71
2022/12/21 11:20:26;;;;;;;49.60;18.77;;;;;;;;;;4956865;28;20031;-71
2022/12/21 11:22:55;;;;;;;49.13;19.35;;;;;;;;;;4955271;28;20244;-72
2022/12/21 11:25:24;;;;;;;51.03;20.83;;;;;;;;;;4961598;28;20141;-71
2022/12/21 11:27:52;;;;;;;45.15;19.13;;;;;;;;;;4956512;28;20434;-73
2022/12/21 11:30:22;;;;;;;50.65;20.23;;;;;;;;;;4976325;28;20030;-70
2022/12/21 11:32:49;;;;;;;54.50;19.88;;;;;;;;;;4977387;28;20034;-73
2022/12/21 11:35:22;;;;;;;46.03;17.85;;;;;;;;;;4975902;28;20609;-71
2022/12/21 11:38:16;;;;;;;45.97;17.73;;;;;;;;;;4971552;28;20037;-71
2022/12/21 11:40:55;;;;;;;43.35;18.75;;;;;;;;;;4976599;28;20044;-72
2022/12/21 11:43:23;;;;;;;48.67;19.17;;;;;;;;;;4977882;28;20243;-72
2022/12/21 11:45:54;;;;;;;44.72;18.92;;;;;;;;;;4952570;28;20030;-72
2022/12/21 11:48:39;;;;;;;44.30;18.20;;;;;;;;;;4955208;28;20035;-71
2022/12/21 11:51:14;;;;;;;41.97;17.73;;;;;;;;;;4952187;28;20051;-72
2022/12/21 11:53:53;;;;;;;42.13;18.00;;;;;;;;;;4951793;28;20270;-71
2022/12/21 11:56:35;;;;;;;44.65;20.33;;;;;;;;;;4954530;28;20030;-71
2022/12/21 11:59:28;;;;;;;50.78;20.17;;;;;;;;;;4938904;28;20083;-71
2022/12/21 12:02:06;;;;;;;46.22;20.00;;;;;;;;;;4952433;28;20039;-73
2022/12/21 12:04:46;;;;;;;44.63;20.00;;;;;;;;;;4956894;28;20365;-73
2022/12/21 12:07:30;;;;;;;40.55;17.92;;;;;;;;;;4957367;28;20034;-73
2022/12/21 12:10:08;;;;;;;34.75;17.85;;;;;;;;;;4957872;28;20015;-73
2022/12/21 12:12:45;;;;;;;47.22;19.33;;;;;;;;;;4956433;28;20464;-72
2022/12/21 12:15:39;;;;;;;45.25;19.85;;;;;;;;;;4956046;28;20051;-72
2022/12/21 12:18:26;;;;;;;49.10;20.23;;;;;;;;;;4932948;28;20031;-71
2022/12/21 12:21:03;;;;;;;47.85;23.73;;;;;;;;;;4955548;28;20033;-72
2022/12/21 12:23:31;;;;;;;45.03;21.27;;;;;;;;;;4953922;28;20042;-71
2022/12/21 12:26:09;;;;;;;40.45;18.92;;;;;;;;;;4969765;28;20087;-71
2022/12/21 12:28:53;;;;;;;39.97;18.67;;;;;;;;;;4971197;28;20033;-72
2022/12/21 12:31:22;;;;;;;41.67;21.35;;;;;;;;;;4953560;28;20090;-71
2022/12/21 12:33:56;;;;;;;42.13;20.90;;;;;;;;;;4974323;28;20033;-72
2022/12/21 12:36:47;;;;;;;40.97;19.05;;;;;;;;;;4972619;28;20054;-72
2022/12/21 12:39:32;;;;;;;46.13;20.38;;;;;;;;;;4950000;28;20073;-72
2022/12/21 12:42:04;;;;;;;51.28;20.40;;;;;;;;;;4975816;28;20034;-72
2022/12/21 12:44:41;;;;;;;44.97;21.02;;;;;;;;;;4972740;28;20425;-71
2022/12/21 12:47:06;;;;;;;32.08;17.50;;;;;;;;;;4971425;28;20019;-72
2022/12/21 12:49:44;;;;;;;38.28;16.63;;;;;;;;;;4970622;28;20146;-74
2022/12/21 12:52:18;;;;;;;34.47;16.73;;;;;;;;;;4963974;28;20933;-73
2022/12/21 12:54:54;;;;;;;34.13;16.98;;;;;;;;;;4974201;28;20092;-72
2022/12/21 12:57:19;;;;;;;34.60;15.95;;;;;;;;;;4971087;28;20084;-74
2022/12/21 13:00:01;;;;;;;36.40;16.65;;;;;;;;;;4972662;28;20533;-73
2022/12/21 13:02:34;;;;;;;38.55;17.30;;;;;;;;;;4972577;28;20049;-72
2022/12/21 13:05:08;;;;;;;37.95;19.98;;;;;;;;;;4972295;28;20038;-73
2022/12/21 13:07:36;;;;;;;38.55;19.50;;;;;;;;;;4973614;28;20041;-73
2022/12/21 13:10:14;;;;;;;37.13;18.77;;;;;;;;;;4970411;28;20034;-72
2022/12/21 13:12:58;;;;;;;39.80;20.42;;;;;;;;;;4972030;28;20130;-74
2022/12/21 13:15:32;;;;;;;35.08;18.55;;;;;;;;;;4970421;28;20042;-72
2022/12/21 13:18:04;;;;;;;38.97;19.77;;;;;;;;;;4968244;28;20039;-72
2022/12/21 13:20:30;;;;;;;42.60;21.27;;;;;;;;;;4953514;28;20042;-72
2022/12/21 13:22:59;;;;;;;36.78;20.15;;;;;;;;;;4970441;28;20118;-72
2022/12/21 13:25:31;;;;;;;36.67;20.52;;;;;;;;;;4951115;28;20309;-72
2022/12/21 13:27:57;;;;;;;40.30;20.63;;;;;;;;;;4968114;28;20507;-71
2022/12/21 13:30:23;;;;;;;33.17;19.75;;;;;;;;;;4970144;28;20356;-73
2022/12/21 13:32:57;;;;;;;35.42;20.40;;;;;;;;;;4970542;28;20037;-72
2022/12/21 13:35:32;;;;;;;41.40;20.08;;;;;;;;;;4950547;28;20473;-71
2022/12/21 13:38:00;;;;;;;35.65;20.42;;;;;;;;;;4969497;28;20467;-73
2022/12/21 13:40:31;;;;;;;40.40;24.63;;;;;;;;;;4970361;28;20297;-73
2022/12/21 13:42:57;;;;;;;43.78;22.65;;;;;;;;;;4971715;28;20034;-73
2022/12/21 13:45:26;;;;;;;31.92;20.77;;;;;;;;;;4955301;28;20035;-73
2022/12/21 13:47:52;;;;;;;36.35;21.20;;;;;;;;;;4962957;28;20543;-73
2022/12/21 13:50:36;;;;;;;37.20;21.45;;;;;;;;;;4969419;28;20030;-72
2022/12/21 13:53:13;;;;;;;41.67;22.33;;;;;;;;;;4968838;28;20322;-72
2022/12/21 13:55:58;;;;;;;35.00;21.45;;;;;;;;;;4970669;28;20038;-72
2022/12/21 13:58:26;;;;;;;47.58;22.50;;;;;;;;;;4969702;28;20099;-73
2022/12/21 14:00:59;;;;;;;44.65;22.58;;;;;;;;;;4972096;28;20125;-75
2022/12/21 14:03:47;;;;;;;37.67;21.30;;;;;;;;;;4954273;28;20034;-72
2022/12/21 14:06:32;;;;;;;40.28;21.50;;;;;;;;;;4970639;28;20066;-73
2022/12/21 14:09:08;;;;;;;45.83;22.85;;;;;;;;;;4971032;28;20034;-73
2022/12/21 14:11:39;;;;;;;50.53;23.70;;;;;;;;;;4974250;28;20103;-75
2022/12/21 14:14:09;;;;;;;49.85;24.55;;;;;;;;;;4969744;28;20200;-73
2022/12/21 14:16:38;;;;;;;53.50;23.95;;;;;;;;;;4969603;28;20490;-73
2022/12/21 14:19:21;;;;;;;46.30;23.25;;;;;;;;;;4950851;28;20035;-72
2022/12/21 14:21:50;;;;;;;43.75;23.30;;;;;;;;;;4950019;28;20483;-75
2022/12/21 14:24:19;;;;;;;41.03;22.20;;;;;;;;;;4953156;28;20121;-73
2022/12/21 14:26:44;;;;;;;42.42;23.08;;;;;;;;;;4951752;28;20035;-74
2022/12/21 14:29:33;;;;;;;37.72;21.55;;;;;;;;;;4956192;28;20046;-73
2022/12/21 14:31:58;;;;;;;37.55;21.00;;;;;;;;;;4940850;28;20493;-75
2022/12/21 14:34:24;;;;;;;44.58;23.45;;;;;;;;;;4941099;28;20069;-73
2022/12/21 14:37:06;;;;;;;38.60;23.45;;;;;;;;;;4955786;28;20131;-76
2022/12/21 14:39:37;;;;;;;37.90;23.35;;;;;;;;;;4953566;28;20493;-73
2022/12/21 14:42:04;;;;;;;;;;;;;;;;;;4949024;28;20038;-71
2022/12/21 14:44:29;;;;;;;39.65;23.98;;;;;;;;;;4950851;28;19910;-72